Time;durP1;ratioP1;P1;durP2;ratioP2;P2;SDS_P1;SDS_P2;PMS_P1;PMS_P2;Temp;Humidity;BMP_temperature;BMP_pressure;BME280_temperature;BME280_humidity;BME280_pressure;Samples;Min_cycle;Max_cycle;Signal;HPM_P1;HPM_P2
2022/12/30 00:04:03;;;;;;;1.23;0.80;;;;;;;18.77;55.77;96471.84;10345058;28;20529;-54
2022/12/30 00:09:22;;;;;;;1.15;0.90;;;;;;;18.76;55.69;96496.47;10344103;28;20050;-54
2022/12/30 00:37:16;;;;;;;1.38;0.90;;;;;;;18.69;55.27;96507.78;10351060;28;20057;-54
2022/12/30 00:59:30;;;;;;;1.30;0.77;;;;;;;18.67;55.05;96483.03;10337819;28;20066;-54
2022/12/30 01:04:50;;;;;;;1.77;1.13;;;;;;;18.66;54.95;96503.03;10350645;28;20058;-54
2022/12/30 01:10:12;;;;;;;1.65;0.80;;;;;;;18.64;54.96;96524.16;10336636;28;20426;-55
2022/12/30 01:15:32;;;;;;;1.30;0.90;;;;;;;18.64;54.91;96548.44;10319252;28;20061;-54
2022/12/30 01:20:52;;;;;;;1.30;0.90;;;;;;;18.63;54.90;96546.06;10337201;28;20400;-54
2022/12/30 01:26:12;;;;;;;1.58;0.75;;;;;;;18.62;54.91;96552.56;10335988;28;20816;-54
2022/12/30 01:31:31;;;;;;;1.40;1.02;;;;;;;18.62;54.81;96571.44;10336633;28;20105;-54
2022/12/30 01:36:50;;;;;;;0.80;0.80;;;;;;;18.60;54.85;96595.25;10336142;28;20065;-54
2022/12/30 01:42:37;;;;;;;1.15;0.90;;;;;;;18.60;54.87;96614.16;10336249;28;20055;-53
2022/12/30 01:48:15;;;;;;;1.20;0.90;;;;;;;18.60;54.79;96619.53;10324438;28;20418;-54
2022/12/30 01:53:41;;;;;;;0.77;0.70;;;;;;;18.57;54.76;96610.97;10321168;28;20067;-54
2022/12/30 01:59:06;;;;;;;0.70;0.70;;;;;;;18.56;54.70;96611.28;10315260;28;20514;-54
2022/12/30 02:04:28;;;;;;;1.30;1.00;;;;;;;18.56;54.70;96619.38;10320881;28;20399;-54
2022/12/30 02:09:49;;;;;;;1.08;0.80;;;;;;;18.55;54.64;96617.81;10335285;28;20101;-54
2022/12/30 02:15:09;;;;;;;0.90;0.57;;;;;;;18.54;54.59;96611.63;10328192;28;20054;-55
2022/12/30 02:21:11;;;;;;;2.38;0.90;;;;;;;18.53;54.71;96620.03;10319843;28;20050;-54
2022/12/30 02:26:55;;;;;;;1.00;0.85;;;;;;;18.51;54.49;96635.75;10310261;28;20058;-54
2022/12/30 02:32:17;;;;;;;0.95;0.70;;;;;;;18.50;54.53;96634.97;10333434;28;20540;-54
2022/12/30 02:37:48;;;;;;;1.10;0.68;;;;;;;18.50;54.44;96639.56;10318848;28;20054;-54
2022/12/30 02:48:46;;;;;;;;;;;;;;;18.47;54.64;96632.13;10322013;28;20410;-54
2022/12/30 02:54:06;;;;;;;0.60;0.60;;;;;;;18.46;54.37;96628.63;10320804;28;20662;-54
2022/12/30 03:05:20;;;;;;;0.70;0.65;;;;;;;18.45;54.35;96632.44;10321213;28;20426;-53
2022/12/30 03:11:13;;;;;;;0.70;0.70;;;;;;;18.43;54.34;96645.44;10345863;28;20050;-54
2022/12/30 03:16:35;;;;;;;0.90;0.80;;;;;;;18.43;54.29;96639.28;10316899;28;20108;-54
2022/12/30 03:21:55;;;;;;;0.93;0.85;;;;;;;18.42;54.47;96640.38;10332496;28;20062;-54
2022/12/30 03:27:18;;;;;;;0.60;0.60;;;;;;;18.41;54.25;96647.69;10332406;28;20050;-53
2022/12/30 03:32:38;;;;;;;0.63;0.63;;;;;;;18.41;54.33;96646.91;10309554;28;20058;-54
2022/12/30 03:37:58;;;;;;;1.00;0.75;;;;;;;18.40;54.18;96664.19;10320499;28;20055;-54
2022/12/30 03:43:18;;;;;;;1.20;0.90;;;;;;;18.40;54.19;96672.25;10330359;28;20054;-54
2022/12/30 03:48:38;;;;;;;1.10;0.75;;;;;;;18.38;54.11;96676.09;10344914;28;20443;-54
2022/12/30 03:53:57;;;;;;;0.90;0.77;;;;;;;18.38;54.27;96672.56;10353100;28;20097;-55
2022/12/30 03:59:17;;;;;;;0.63;0.60;;;;;;;18.36;54.27;96667.50;10339897;28;20062;-54
2022/12/30 04:04:36;;;;;;;1.20;0.60;;;;;;;18.35;54.26;96674.00;10339812;28;20050;-54
2022/12/30 04:09:56;;;;;;;0.68;0.50;;;;;;;18.35;54.14;96692.91;10339728;28;20418;-55
2022/12/30 04:15:15;;;;;;;0.75;0.60;;;;;;;18.34;54.16;96702.09;10332939;28;20062;-54
2022/12/30 04:20:35;;;;;;;0.80;0.60;;;;;;;18.33;54.10;96719.41;10327996;28;20449;-55
2022/12/30 04:25:54;;;;;;;0.68;0.68;;;;;;;18.32;54.16;96717.00;10338880;28;20066;-54
2022/12/30 04:31:14;;;;;;;0.65;0.65;;;;;;;18.31;54.25;96724.31;10338848;28;20058;-55
2022/12/30 04:36:33;;;;;;;0.70;0.70;;;;;;;18.31;54.16;96720.81;10338487;28;20062;-54
2022/12/30 04:41:52;;;;;;;1.15;0.73;;;;;;;18.30;54.23;96733.50;10338255;28;20058;-53
2022/12/30 04:47:11;;;;;;;0.60;0.60;;;;;;;18.29;54.05;96737.31;10351221;28;20511;-55
2022/12/30 04:52:31;;;;;;;0.60;0.60;;;;;;;18.29;54.24;96741.94;10338263;28;20071;-54
2022/12/30 04:57:50;;;;;;;0.70;0.70;;;;;;;18.26;54.12;96756.81;10338150;28;20054;-54
2022/12/30 05:03:09;;;;;;;0.50;0.50;;;;;;;18.27;54.03;96755.72;10336927;28;20054;-54
2022/12/30 05:08:29;;;;;;;0.43;0.43;;;;;;;18.26;54.07;96770.31;10326579;28;20395;-54
2022/12/30 05:13:48;;;;;;;0.68;0.68;;;;;;;18.25;54.13;96774.13;10323619;28;20042;-55
2022/12/30 05:19:08;;;;;;;0.47;0.47;;;;;;;18.24;54.16;96780.59;10333146;28;20058;-55
2022/12/30 05:30:07;;;;;;;0.90;0.70;;;;;;;18.25;54.13;96776.00;10336619;28;20109;-54
2022/12/30 05:35:26;;;;;;;1.15;0.80;;;;;;;18.26;54.02;96780.31;10336267;28;20054;-54
2022/12/30 05:40:46;;;;;;;0.73;0.60;;;;;;;18.26;53.91;96783.00;10335756;28;20058;-54
2022/12/30 05:46:05;;;;;;;1.45;0.52;;;;;;;18.26;53.83;96797.28;10335578;28;20062;-54
2022/12/30 05:51:24;;;;;;;0.43;0.43;;;;;;;18.28;53.96;96808.53;10345837;28;20042;-54
2022/12/30 05:56:44;;;;;;;0.65;0.65;;;;;;;18.30;53.80;96810.91;10335593;28;20055;-54
2022/12/30 06:02:03;;;;;;;1.08;0.50;;;;;;;18.31;53.81;96821.41;10335015;28;20062;-54
2022/12/30 06:07:23;;;;;;;0.50;0.50;;;;;;;18.33;53.86;96827.28;10334999;28;20050;-54
2022/12/30 06:12:43;;;;;;;0.70;0.50;;;;;;;18.34;53.77;96836.94;10324641;28;20065;-54
2022/12/30 06:18:02;;;;;;;0.68;0.60;;;;;;;18.36;53.69;96845.50;10328628;28;20452;-54
2022/12/30 06:23:23;;;;;;;0.70;0.50;;;;;;;18.38;53.64;96842.50;10347287;28;20060;-53
2022/12/30 06:28:43;;;;;;;0.80;0.60;;;;;;;18.38;53.50;96837.91;10347400;28;20059;-54
2022/12/30 06:34:02;;;;;;;0.55;0.50;;;;;;;18.41;53.43;96846.50;10333509;28;20498;-54
2022/12/30 06:39:21;;;;;;;0.70;0.60;;;;;;;18.43;53.48;96828.09;10333478;28;20058;-54
2022/12/30 06:44:40;;;;;;;0.63;0.50;;;;;;;18.46;53.31;96849.00;10333378;28;20058;-53
2022/12/30 06:50:00;;;;;;;0.52;0.52;;;;;;;18.47;53.17;96846.00;10333570;28;20070;-54
2022/12/30 06:55:21;;;;;;;0.60;0.60;;;;;;;18.49;53.17;96856.50;10333495;28;20406;-53
2022/12/30 07:00:41;;;;;;;0.85;0.63;;;;;;;18.51;53.12;96841.56;10332964;28;20062;-55
2022/12/30 07:06:00;;;;;;;0.45;0.45;;;;;;;18.54;53.11;96861.72;10332891;28;20058;-54
2022/12/30 07:11:20;;;;;;;0.60;0.55;;;;;;;18.56;53.03;96854.09;10332713;28;20062;-53
2022/12/30 07:16:40;;;;;;;0.50;0.50;;;;;;;18.58;53.06;96855.41;10320327;28;20125;-54
2022/12/30 07:21:59;;;;;;;0.45;0.43;;;;;;;18.60;53.03;96854.25;10332536;28;20069;-54
2022/12/30 07:27:19;;;;;;;0.40;0.40;;;;;;;18.62;52.91;96857.44;10332108;28;20058;-53
2022/12/30 07:32:39;;;;;;;0.93;0.60;;;;;;;18.65;52.79;96876.50;10332541;28;20063;-54
2022/12/30 07:37:58;;;;;;;0.80;0.68;;;;;;;18.67;52.75;96862.69;10329109;28;20054;-54
2022/12/30 07:43:18;;;;;;;0.40;0.40;;;;;;;18.68;52.70;96878.56;10334426;28;20054;-54
2022/12/30 07:48:37;;;;;;;0.50;0.50;;;;;;;18.71;52.85;96883.31;10345025;28;20088;-53
2022/12/30 07:53:58;;;;;;;1.27;1.00;;;;;;;18.74;53.23;96876.53;10325078;28;20069;-55
2022/12/30 07:59:17;;;;;;;0.70;0.70;;;;;;;18.76;53.27;96891.28;10344366;28;20050;-54
2022/12/30 08:04:37;;;;;;;0.70;0.70;;;;;;;18.80;53.32;96896.06;10328575;28;20062;-54
2022/12/30 08:09:57;;;;;;;0.70;0.70;;;;;;;18.81;53.53;96890.34;10331548;28;20414;-54
2022/12/30 08:15:16;;;;;;;1.42;0.68;;;;;;;18.84;53.63;96919.41;10325440;28;20093;-52
2022/12/30 08:20:35;;;;;;;0.70;0.70;;;;;;;18.89;53.55;96923.84;10322369;28;20422;-52
2022/12/30 08:25:55;;;;;;;0.70;0.68;;;;;;;18.91;53.64;96910.84;10325875;28;20059;-53
2022/12/30 08:31:17;;;;;;;1.67;0.63;;;;;;;18.94;53.67;96926.41;10305810;28;20055;-53
2022/12/30 08:36:37;;;;;;;1.05;0.68;;;;;;;18.96;53.74;96937.69;10311903;28;20054;-54
2022/12/30 08:41:57;;;;;;;2.75;0.60;;;;;;;18.99;53.86;96952.44;10321001;28;20506;-54
2022/12/30 08:47:16;;;;;;;0.60;0.55;;;;;;;19.03;53.94;96954.19;10338087;28;20050;-52
2022/12/30 08:52:37;;;;;;;0.70;0.70;;;;;;;19.04;53.84;96942.28;10338125;28;20062;-54
2022/12/30 08:57:56;;;;;;;1.15;0.70;;;;;;;19.07;54.19;96938.97;10327809;28;20054;-54
2022/12/30 09:03:16;;;;;;;0.70;0.70;;;;;;;19.09;54.40;96963.75;10333273;28;20054;-53
2022/12/30 09:08:36;;;;;;;0.55;0.50;;;;;;;19.13;54.34;96980.09;10328310;28;20081;-52
2022/12/30 09:13:56;;;;;;;1.02;0.52;;;;;;;19.15;54.38;96983.25;10325109;28;20058;-54
2022/12/30 09:19:16;;;;;;;0.95;0.70;;;;;;;19.18;54.65;96990.75;10334650;28;20054;-53
2022/12/30 09:24:37;;;;;;;0.95;0.82;;;;;;;19.21;54.63;96992.81;10316739;28;20054;-53
2022/12/30 09:29:57;;;;;;;1.00;0.90;;;;;;;19.24;54.57;96997.56;10311582;28;20054;-53
2022/12/30 09:35:16;;;;;;;0.70;0.70;;;;;;;19.26;54.42;97000.75;10318901;28;20046;-54
2022/12/30 09:40:46;;;;;;;0.90;0.80;;;;;;;19.28;54.43;97011.25;10308795;28;20066;-53
2022/12/30 09:46:40;;;;;;;0.77;0.60;;;;;;;19.31;54.38;97013.31;10321431;28;20065;-52
2022/12/30 09:52:10;;;;;;;0.60;0.60;;;;;;;19.32;54.39;97012.19;10309907;28;20059;-53
2022/12/30 09:57:32;;;;;;;0.75;0.65;;;;;;;19.35;54.22;97003.47;10300313;28;20050;-53
2022/12/30 10:03:19;;;;;;;0.70;0.70;;;;;;;19.38;54.12;96997.41;10308291;28;20054;-54
2022/12/30 10:09:04;;;;;;;0.60;0.60;;;;;;;19.40;53.99;96972.78;10320560;28;20120;-54
2022/12/30 10:14:37;;;;;;;0.70;0.70;;;;;;;19.43;53.63;96969.47;10301687;28;20051;-54
2022/12/30 10:20:16;;;;;;;1.33;0.60;;;;;;;19.43;53.63;96956.75;10243342;28;20054;-53
2022/12/30 10:26:07;;;;;;;0.98;0.70;;;;;;;19.46;53.54;96956.09;10299895;28;20069;-54
2022/12/30 10:31:30;;;;;;;1.00;0.70;;;;;;;19.48;53.33;96943.09;10267875;28;20558;-51
2022/12/30 10:37:01;;;;;;;2.20;0.88;;;;;;;19.50;53.11;96924.66;10293440;28;20631;-54
2022/12/30 10:42:26;;;;;;;1.23;0.90;;;;;;;19.51;53.08;96918.09;10282705;28;20424;-54
2022/12/30 10:48:03;;;;;;;0.80;0.70;;;;;;;19.54;52.90;96928.28;10264535;28;20058;-58
2022/12/30 10:53:25;;;;;;;0.98;0.75;;;;;;;19.52;49.98;96914.31;10288338;28;20423;-55
2022/12/30 10:58:47;;;;;;;2.75;0.85;;;;;;;19.55;51.54;96919.06;10292603;28;20063;-54
2022/12/30 11:04:06;;;;;;;1.52;0.80;;;;;;;19.55;51.74;96905.53;10272629;28;20051;-54
2022/12/30 11:09:26;;;;;;;1.13;0.70;;;;;;;19.56;51.82;96890.94;10281942;28;20423;-55
2022/12/30 11:14:56;;;;;;;1.20;0.80;;;;;;;19.58;51.89;96884.41;10310600;28;20419;-55
2022/12/30 11:20:16;;;;;;;0.60;0.60;;;;;;;19.60;52.14;96884.88;10318285;28;20058;-54
2022/12/30 11:25:44;;;;;;;1.52;0.80;;;;;;;19.60;51.98;96882.16;10332947;28;20439;-56
2022/12/30 11:31:08;;;;;;;0.60;0.60;;;;;;;19.60;51.75;96874.88;10332917;28;20062;-55
2022/12/30 11:36:27;;;;;;;1.80;0.77;;;;;;;19.62;51.68;96885.34;10331978;28;20392;-55
2022/12/30 11:41:59;;;;;;;1.70;0.80;;;;;;;19.62;46.79;96885.34;10345573;28;20046;-55
2022/12/30 11:47:18;;;;;;;2.72;1.10;;;;;;;19.62;45.68;96886.16;10324733;28;20419;-54
2022/12/30 11:52:38;;;;;;;2.38;1.10;;;;;;;19.62;46.29;96890.75;10331730;28;20083;-54
2022/12/30 11:57:58;;;;;;;2.35;1.10;;;;;;;19.60;46.55;96884.88;10300227;28;20058;-54
2022/12/30 12:03:18;;;;;;;1.90;1.05;;;;;;;19.59;46.73;96897.59;10300705;28;20407;-54
2022/12/30 12:09:18;;;;;;;3.72;1.10;;;;;;;19.58;46.66;96887.09;10328602;28;20461;-54
2022/12/30 12:14:59;;;;;;;4.70;1.08;;;;;;;19.57;46.99;96897.13;10344221;28;20507;-54
2022/12/30 12:20:36;;;;;;;4.60;1.40;;;;;;;19.56;47.22;96890.13;10307102;28;20059;-55
2022/12/30 12:26:16;;;;;;;5.75;1.50;;;;;;;19.55;47.37;96873.13;10307213;28;20417;-53
2022/12/30 12:32:02;;;;;;;3.10;1.45;;;;;;;19.54;47.31;96871.53;10304383;28;20114;-54
2022/12/30 12:37:48;;;;;;;3.63;1.45;;;;;;;19.54;47.63;96859.91;10300362;28;20050;-54
2022/12/30 12:43:15;;;;;;;4.15;1.23;;;;;;;19.55;48.36;96866.94;10277248;28;20059;-55
2022/12/30 12:48:53;;;;;;;3.50;1.23;;;;;;;19.55;48.67;96862.31;10261628;28;20534;-54
2022/12/30 12:54:28;;;;;;;2.83;1.17;;;;;;;19.54;48.90;96847.22;10274182;28;20054;-55
2022/12/30 13:00:00;;;;;;;4.50;1.30;;;;;;;19.54;49.07;96817.50;10264045;28;20078;-55
2022/12/30 13:05:42;;;;;;;2.13;1.25;;;;;;;19.53;49.46;96802.41;10275939;28;20062;-55
2022/12/30 13:11:35;;;;;;;1.88;1.20;;;;;;;19.53;49.77;96796.19;10277448;28;20410;-55
2022/12/30 13:16:57;;;;;;;3.08;1.05;;;;;;;19.52;49.82;96792.72;10266696;28;20054;-55
2022/12/30 13:22:21;;;;;;;2.22;1.00;;;;;;;19.51;49.94;96783.00;10265047;28;20059;-55
2022/12/30 13:27:41;;;;;;;1.95;1.00;;;;;;;19.51;50.07;96772.19;10292771;28;20055;-54
2022/12/30 13:33:17;;;;;;;2.53;1.00;;;;;;;19.50;50.28;96767.94;10286660;28;20407;-54
2022/12/30 13:39:04;;;;;;;2.97;1.05;;;;;;;19.49;50.48;96763.63;10287966;28;20384;-54
2022/12/30 13:44:30;;;;;;;4.35;1.08;;;;;;;19.49;50.46;96750.13;10277423;28;20059;-54
2022/12/30 13:49:49;;;;;;;2.15;1.00;;;;;;;19.49;50.65;96760.94;10275381;28;20109;-55
2022/12/30 13:55:21;;;;;;;1.42;0.82;;;;;;;19.49;50.66;96779.06;10283959;28;20496;-48
2022/12/30 14:00:42;;;;;;;1.70;0.88;;;;;;;19.49;50.95;96792.56;10293381;28;20055;-48
2022/12/30 14:06:03;;;;;;;1.50;0.98;;;;;;;19.47;51.09;96773.97;10295256;28;20117;-51
2022/12/30 14:11:22;;;;;;;1.67;1.10;;;;;;;19.46;51.15;96777.00;10294362;28;20419;-49
2022/12/30 14:16:45;;;;;;;1.48;0.77;;;;;;;19.45;51.16;96775.41;10326938;28;20055;-47
2022/12/30 14:22:04;;;;;;;1.35;0.77;;;;;;;19.45;51.22;96781.59;10330448;28;20065;-51
2022/12/30 14:27:40;;;;;;;1.23;0.80;;;;;;;19.43;51.23;96781.13;10319200;28;20515;-48
2022/12/30 14:33:17;;;;;;;1.25;0.90;;;;;;;19.42;51.17;96776.06;10346494;28;20499;-51
2022/12/30 14:38:49;;;;;;;1.70;0.80;;;;;;;19.41;51.34;96780.66;10333273;28;20054;-52
2022/12/30 14:44:11;;;;;;;1.92;0.80;;;;;;;19.41;51.30;96774.47;10333725;28;20058;-52
2022/12/30 14:49:36;;;;;;;1.08;0.80;;;;;;;19.40;51.38;96757.47;10325210;28;20502;-51
2022/12/30 14:54:56;;;;;;;1.13;0.70;;;;;;;19.37;51.35;96747.31;10345967;28;20122;-53
2022/12/30 15:00:20;;;;;;;1.25;0.80;;;;;;;19.38;51.41;96737.28;10332727;28;20062;-52
2022/12/30 15:05:51;;;;;;;1.00;0.70;;;;;;;19.36;51.38;96757.31;10333081;28;20062;-51
2022/12/30 15:11:29;;;;;;;1.20;0.73;;;;;;;19.35;51.43;96754.97;10333015;28;20058;-51
2022/12/30 15:17:24;;;;;;;1.27;0.80;;;;;;;19.34;51.45;96759.53;10292109;28;20051;-51
2022/12/30 15:22:44;;;;;;;1.33;0.80;;;;;;;19.33;51.50;96768.00;10289170;28;20070;-51
2022/12/30 15:28:03;;;;;;;0.80;0.70;;;;;;;19.33;51.61;96776.09;10292480;28;20062;-51
2022/12/30 15:33:24;;;;;;;1.30;0.80;;;;;;;19.31;51.47;96760.22;10289572;28;20051;-53
2022/12/30 15:38:43;;;;;;;1.00;0.80;;;;;;;19.31;51.38;96751.31;10291842;28;20500;-51
2022/12/30 15:44:06;;;;;;;0.57;0.52;;;;;;;19.29;51.67;96740.03;10305760;28;20054;-52
2022/12/30 15:49:28;;;;;;;1.58;0.70;;;;;;;19.28;51.71;96727.63;10286374;28;20062;-53
2022/12/30 15:54:51;;;;;;;0.68;0.60;;;;;;;19.26;51.54;96730.66;10299919;28;20062;-53
2022/12/30 16:00:22;;;;;;;2.33;0.70;;;;;;;19.27;51.51;96726.06;10299379;28;20062;-54
2022/12/30 16:05:45;;;;;;;1.95;0.70;;;;;;;19.26;51.59;96727.97;10299692;28;20059;-52
2022/12/30 16:11:06;;;;;;;3.60;0.77;;;;;;;19.25;51.60;96730.97;10283945;28;20061;-54
2022/12/30 16:16:34;;;;;;;0.77;0.60;;;;;;;19.24;51.77;96711.28;10315147;28;20059;-54
2022/12/30 16:22:00;;;;;;;0.80;0.70;;;;;;;19.22;51.81;96702.72;10334248;28;20062;-53
2022/12/30 16:27:20;;;;;;;1.50;0.80;;;;;;;19.23;52.15;96700.81;10321966;28;20062;-55
2022/12/30 16:32:39;;;;;;;1.27;0.80;;;;;;;19.22;52.66;96691.91;10338462;28;20066;-56
2022/12/30 16:38:03;;;;;;;1.75;0.90;;;;;;;19.23;53.65;96671.09;10308751;28;20066;-55
2022/12/30 16:43:22;;;;;;;1.42;0.80;;;;;;;19.23;54.67;96673.78;10309140;28;20062;-56
2022/12/30 16:48:42;;;;;;;5.90;0.85;;;;;;;19.21;54.98;96668.75;10316750;28;20055;-55
2022/12/30 16:54:04;;;;;;;1.58;0.65;;;;;;;19.22;54.65;96654.09;10337227;28;20050;-52
2022/12/30 16:59:23;;;;;;;1.23;0.70;;;;;;;19.21;54.51;96646.31;10333315;28;20529;-51
2022/12/30 17:04:43;;;;;;;1.52;0.70;;;;;;;19.21;54.52;96646.31;10334605;28;20058;-54
2022/12/30 17:15:41;;;;;;;;;;;;;;;19.17;54.92;96633.50;10330768;28;20051;-55
2022/12/30 17:21:02;;;;;;;1.63;0.77;;;;;;;19.17;54.55;96641.59;10343550;28;19922;-55
2022/12/30 17:26:23;;;;;;;1.17;0.77;;;;;;;19.17;54.12;96624.59;10349280;28;20177;-55
2022/12/30 17:31:43;;;;;;;1.67;0.93;;;;;;;19.16;53.82;96633.81;10305245;28;20061;-54
2022/12/30 17:37:03;;;;;;;1.80;0.90;;;;;;;19.13;53.45;96632.56;10349503;28;20051;-53
2022/12/30 17:42:22;;;;;;;1.60;0.90;;;;;;;19.12;53.33;96617.47;10333748;28;20423;-53
2022/12/30 17:47:47;;;;;;;1.63;1.05;;;;;;;19.12;53.31;96649.06;10318217;28;20066;-54
2022/12/30 17:53:08;;;;;;;1.58;0.90;;;;;;;19.10;53.05;96630.50;10321745;28;20077;-54
2022/12/30 17:58:27;;;;;;;1.17;0.90;;;;;;;19.11;53.10;96628.59;10301722;28;20507;-54
2022/12/30 18:03:46;;;;;;;1.67;0.98;;;;;;;19.10;53.13;96643.22;10342461;28;20058;-55
2022/12/30 18:09:07;;;;;;;1.25;0.90;;;;;;;19.09;53.04;96652.41;10331131;28;20058;-55
2022/12/30 18:14:26;;;;;;;2.17;0.80;;;;;;;19.07;52.93;96624.94;10327833;28;20526;-54
2022/12/30 18:19:46;;;;;;;1.48;0.90;;;;;;;19.08;53.04;96613.03;10324012;28;20066;-53
2022/12/30 18:25:06;;;;;;;0.95;0.85;;;;;;;19.06;53.21;96612.59;10323488;28;20062;-55
2022/12/30 18:30:25;;;;;;;1.00;0.70;;;;;;;19.05;53.24;96614.50;10311059;28;20058;-55
2022/12/30 18:35:45;;;;;;;0.82;0.80;;;;;;;19.04;52.99;96609.41;10326041;28;20054;-55
2022/12/30 18:41:09;;;;;;;2.17;0.90;;;;;;;19.04;52.97;96614.81;10330175;28;20209;-55
2022/12/30 18:46:29;;;;;;;1.63;0.90;;;;;;;19.03;52.86;96614.00;10315975;28;20122;-55
2022/12/30 18:51:49;;;;;;;1.05;0.80;;;;;;;19.02;52.78;96614.34;10302975;28;20422;-55
2022/12/30 18:57:09;;;;;;;1.75;0.82;;;;;;;19.01;52.93;96604.66;10307807;28;20055;-55
2022/12/30 19:02:28;;;;;;;1.48;0.90;;;;;;;19.00;52.84;96600.38;10293447;28;20063;-55
2022/12/30 19:07:48;;;;;;;0.90;0.82;;;;;;;18.98;52.82;96594.53;10332015;28;20058;-55
2022/12/30 19:13:07;;;;;;;1.48;0.75;;;;;;;18.97;52.82;96596.41;10326664;28;20430;-55
2022/12/30 19:18:27;;;;;;;1.10;1.00;;;;;;;18.98;52.96;96595.31;10329559;28;20077;-57
2022/12/30 19:23:47;;;;;;;1.55;1.10;;;;;;;18.96;52.93;96592.94;10323381;28;20182;-56
2022/12/30 19:29:07;;;;;;;1.55;0.80;;;;;;;18.98;52.86;96586.41;10321340;28;20065;-56
2022/12/30 19:34:26;;;;;;;1.83;0.80;;;;;;;18.98;52.77;96594.53;10331530;28;20062;-56
2022/12/30 19:39:46;;;;;;;2.15;1.00;;;;;;;18.98;52.83;96589.91;10321289;28;20121;-57
2022/12/30 19:45:06;;;;;;;0.90;0.70;;;;;;;19.00;53.01;96597.69;10325474;28;20069;-55
2022/12/30 19:50:26;;;;;;;1.80;0.90;;;;;;;19.00;52.92;96608.47;10306994;28;20062;-55
2022/12/30 19:55:45;;;;;;;1.27;1.02;;;;;;;18.99;52.89;96610.38;10331425;28;20054;-55
2022/12/30 20:01:13;;;;;;;2.83;0.90;;;;;;;19.01;52.81;96627.03;10341665;28;20117;-55
2022/12/30 20:06:35;;;;;;;1.23;0.93;;;;;;;19.03;52.84;96621.31;10344449;28;20067;-55
2022/12/30 20:11:54;;;;;;;2.95;1.00;;;;;;;19.03;52.77;96611.31;10318232;28;20054;-55
2022/12/30 20:17:14;;;;;;;2.53;1.00;;;;;;;19.03;52.79;96605.91;10340459;28;20414;-55
2022/12/30 20:22:33;;;;;;;1.40;0.88;;;;;;;19.06;52.79;96602.56;10312009;28;20054;-56
2022/12/30 20:27:52;;;;;;;2.85;1.10;;;;;;;19.07;52.93;96592.56;10321770;28;20061;-55
2022/12/30 20:33:12;;;;;;;3.03;1.10;;;;;;;19.08;53.07;96584.13;10301910;28;20478;-55
2022/12/30 20:38:32;;;;;;;2.05;1.00;;;;;;;19.10;53.28;96578.41;10299097;28;20522;-56
2022/12/30 20:43:52;;;;;;;2.95;1.05;;;;;;;19.12;53.27;96581.56;10325667;28;20062;-56
2022/12/30 20:49:13;;;;;;;1.80;1.15;;;;;;;19.13;53.14;96580.44;10312915;28;20510;-56
2022/12/30 20:54:34;;;;;;;3.00;1.00;;;;;;;19.13;53.21;96573.16;10338347;28;20077;-55
2022/12/30 20:59:54;;;;;;;1.65;1.00;;;;;;;19.15;53.08;96573.63;10323826;28;20129;-55
2022/12/30 21:05:13;;;;;;;1.70;1.00;;;;;;;19.15;53.03;96573.63;10338374;28;20116;-55
2022/12/30 21:10:33;;;;;;;1.95;1.10;;;;;;;19.16;53.15;96563.59;10322237;28;20062;-55
2022/12/30 21:15:52;;;;;;;1.10;0.80;;;;;;;19.19;53.19;96556.75;10333437;28;20173;-55
2022/12/30 21:21:12;;;;;;;2.25;0.90;;;;;;;19.20;53.12;96569.13;10350066;28;20053;-54
2022/12/30 21:26:33;;;;;;;1.52;0.90;;;;;;;19.22;52.97;96561.50;10313771;28;20051;-55
2022/12/30 21:31:52;;;;;;;1.50;1.05;;;;;;;19.22;53.02;96558.81;10325697;28;20066;-54
2022/12/30 21:37:12;;;;;;;1.17;0.80;;;;;;;19.21;52.96;96557.22;10336285;28;20058;-54
2022/12/30 22:05:27;;;;;;;2.90;0.82;;;;;;;19.21;52.76;96559.91;10316002;28;20495;-54
2022/12/30 22:10:52;;;;;;;1.07;0.80;;;;;;;19.20;52.76;96569.94;10317934;28;20058;-55
2022/12/30 22:16:12;;;;;;;1.63;0.90;;;;;;;19.21;52.81;96578.81;10320624;28;20057;-54
2022/12/30 22:21:32;;;;;;;0.82;0.80;;;;;;;19.21;52.74;96576.09;10333570;28;20507;-54
2022/12/30 22:26:51;;;;;;;1.75;0.93;;;;;;;19.20;52.63;96580.72;10347599;28;20050;-54
2022/12/30 22:32:11;;;;;;;1.60;0.85;;;;;;;19.18;52.59;96585.66;10334191;28;20089;-55
2022/12/30 22:37:30;;;;;;;1.70;0.90;;;;;;;19.18;52.59;96588.38;10334394;28;20058;-55
2022/12/30 22:42:51;;;;;;;1.25;0.80;;;;;;;19.19;52.46;96594.56;10310490;28;20065;-54
2022/12/30 22:48:11;;;;;;;1.38;0.80;;;;;;;19.18;52.49;96577.56;10313303;28;20051;-55
2022/12/30 22:53:30;;;;;;;1.23;1.00;;;;;;;19.17;52.39;96587.59;10332938;28;20066;-55
2022/12/30 22:58:51;;;;;;;1.00;0.77;;;;;;;19.16;52.34;96580.59;10346458;28;20046;-54
2022/12/30 23:04:10;;;;;;;0.90;0.80;;;;;;;19.17;52.39;96586.81;10332999;28;20113;-54
2022/12/30 23:09:30;;;;;;;0.88;0.70;;;;;;;19.13;52.41;96586.66;10333278;28;20129;-54
2022/12/30 23:20:29;;;;;;;1.25;0.73;;;;;;;19.12;52.29;96568.84;10332852;28;20050;-56
2022/12/30 23:25:48;;;;;;;0.82;0.75;;;;;;;19.11;52.24;96582.69;10329606;28;20058;-54
2022/12/30 23:31:08;;;;;;;0.82;0.63;;;;;;;19.11;52.35;96588.06;10328919;28;20058;-54
2022/12/30 23:36:28;;;;;;;1.33;0.90;;;;;;;19.10;52.36;96586.50;10341324;28;20058;-55
2022/12/30 23:41:48;;;;;;;1.25;0.93;;;;;;;19.10;52.35;96595.41;10332289;28;20069;-54
2022/12/30 23:47:08;;;;;;;1.17;0.80;;;;;;;19.09;52.33;96593.81;10326309;28;20058;-54
2022/12/30 23:52:27;;;;;;;0.95;0.88;;;;;;;19.07;52.24;96593.38;10317637;28;20166;-53
2022/12/30 23:57:46;;;;;;;1.20;0.80;;;;;;;19.07;52.33;96584.44;10337777;28;20521;-54
